Time;durP1;ratioP1;P1;durP2;ratioP2;P2;SDS_P1;SDS_P2;PMS_P1;PMS_P2;Temp;Humidity;BMP_temperature;BMP_pressure;BME280_temperature;BME280_humidity;BME280_pressure;Samples;Min_cycle;Max_cycle;Signal;HPM_P1;HPM_P2
2023/10/17 00:01:36;;;;;;;4.05;2.42;;;;;;;;;;10297675;28;20497;-66
2023/10/17 00:06:34;;;;;;;7.55;2.65;;;;;;;;;;10294524;28;20295;-65
2023/10/17 00:11:45;;;;;;;6.90;2.15;;;;;;;;;;10295099;28;20068;-65
2023/10/17 00:16:43;;;;;;;8.13;2.33;;;;;;;;;;10292773;28;20080;-66
2023/10/17 00:21:42;;;;;;;3.30;1.63;;;;;;;;;;10294333;28;20068;-65
2023/10/17 00:26:41;;;;;;;5.03;2.17;;;;;;;;;;10293188;28;20103;-66
2023/10/17 00:31:40;;;;;;;5.28;1.98;;;;;;;;;;10294468;28;20068;-65
2023/10/17 00:36:43;;;;;;;2.33;2.13;;;;;;;;;;10301070;28;20084;-65
2023/10/17 00:41:50;;;;;;;3.00;2.03;;;;;;;;;;10293928;28;20075;-66
2023/10/17 00:46:49;;;;;;;2.00;1.60;;;;;;;;;;10294055;28;20076;-65
2023/10/17 00:51:48;;;;;;;2.03;1.83;;;;;;;;;;10293048;28;20072;-65
2023/10/17 00:56:48;;;;;;;2.63;1.73;;;;;;;;;;10293344;28;20065;-66
2023/10/17 01:01:48;;;;;;;2.80;2.40;;;;;;;;;;10291923;28;20056;-66
2023/10/17 01:06:53;;;;;;;4.05;2.85;;;;;;;;;;10293043;28;20056;-65
2023/10/17 01:11:55;;;;;;;1.83;1.65;;;;;;;;;;10267649;28;20040;-66
2023/10/17 01:16:53;;;;;;;4.57;1.95;;;;;;;;;;10275598;28;20087;-65
2023/10/17 01:21:52;;;;;;;1.95;1.83;;;;;;;;;;10276570;28;20069;-65
2023/10/17 01:26:51;;;;;;;3.38;1.77;;;;;;;;;;10275025;28;20514;-65
2023/10/17 01:31:54;;;;;;;2.22;2.03;;;;;;;;;;10273784;28;20041;-64
2023/10/17 01:36:53;;;;;;;2.35;1.67;;;;;;;;;;10273530;28;20509;-65
2023/10/17 01:41:53;;;;;;;4.15;1.65;;;;;;;;;;10275832;28;20064;-66
2023/10/17 01:46:52;;;;;;;3.08;1.60;;;;;;;;;;10274382;28;20503;-63
2023/10/17 01:51:50;;;;;;;2.58;1.80;;;;;;;;;;10275210;28;20078;-65
2023/10/17 01:56:49;;;;;;;3.05;1.65;;;;;;;;;;10274927;28;20461;-65
2023/10/17 02:01:48;;;;;;;4.10;2.13;;;;;;;;;;10273435;28;20056;-64
2023/10/17 02:06:47;;;;;;;4.25;1.98;;;;;;;;;;10272437;28;20453;-66
2023/10/17 02:11:50;;;;;;;1.70;1.60;;;;;;;;;;10273020;28;20037;-66
2023/10/17 02:16:50;;;;;;;3.00;1.58;;;;;;;;;;10274350;28;20080;-66
2023/10/17 02:21:50;;;;;;;6.30;1.83;;;;;;;;;;10272081;28;20533;-65
2023/10/17 02:26:56;;;;;;;2.75;1.90;;;;;;;;;;10272210;28;20053;-65
2023/10/17 02:31:58;;;;;;;2.08;1.88;;;;;;;;;;10273923;28;20080;-65
2023/10/17 02:37:00;;;;;;;2.67;1.92;;;;;;;;;;10259738;28;20068;-65
2023/10/17 02:42:06;;;;;;;4.63;1.80;;;;;;;;;;10272192;28;20077;-65
2023/10/17 02:47:07;;;;;;;2.80;1.60;;;;;;;;;;10274246;28;20469;-65
2023/10/17 02:52:06;;;;;;;2.08;1.60;;;;;;;;;;10278903;28;20056;-65
2023/10/17 02:57:08;;;;;;;3.30;2.17;;;;;;;;;;10282287;28;20072;-65
2023/10/17 03:02:07;;;;;;;2.63;1.77;;;;;;;;;;10280981;28;20083;-66
2023/10/17 03:07:07;;;;;;;2.72;1.88;;;;;;;;;;10281239;28;20068;-64
2023/10/17 03:12:10;;;;;;;6.00;1.70;;;;;;;;;;10281562;28;20045;-64
2023/10/17 03:17:10;;;;;;;8.80;3.08;;;;;;;;;;10279577;28;20088;-66
2023/10/17 03:22:19;;;;;;;1.83;1.50;;;;;;;;;;10281105;28;20075;-65
2023/10/17 03:27:27;;;;;;;2.05;1.85;;;;;;;;;;10278700;28;20882;-66
2023/10/17 03:32:27;;;;;;;2.78;1.90;;;;;;;;;;10278446;28;20060;-64
2023/10/17 03:37:28;;;;;;;2.28;1.75;;;;;;;;;;10280264;28;20073;-65
2023/10/17 03:42:41;;;;;;;1.70;1.60;;;;;;;;;;10264809;28;20075;-65
2023/10/17 03:47:42;;;;;;;5.70;1.77;;;;;;;;;;10266045;28;20473;-65
2023/10/17 03:52:41;;;;;;;1.98;1.77;;;;;;;;;;10279162;28;20099;-65
2023/10/17 03:57:52;;;;;;;5.40;1.50;;;;;;;;;;10278972;28;20083;-67
2023/10/17 04:02:53;;;;;;;2.42;1.70;;;;;;;;;;10278200;28;20048;-66
2023/10/17 04:07:53;;;;;;;2.15;1.73;;;;;;;;;;10278509;28;20044;-66
2023/10/17 04:13:13;;;;;;;5.20;2.22;;;;;;;;;;10272879;28;20064;-65
2023/10/17 04:18:12;;;;;;;2.05;1.63;;;;;;;;;;10277296;28;20869;-65
2023/10/17 04:23:21;;;;;;;2.03;1.70;;;;;;;;;;10273129;28;20075;-65
2023/10/17 04:28:26;;;;;;;2.33;1.90;;;;;;;;;;10274940;28;20080;-66
2023/10/17 04:33:28;;;;;;;1.70;1.60;;;;;;;;;;10273556;28;20072;-65
2023/10/17 04:38:38;;;;;;;2.50;2.20;;;;;;;;;;10274028;28;20072;-66
2023/10/17 04:43:45;;;;;;;9.63;3.70;;;;;;;;;;10263468;28;20072;-66
2023/10/17 04:48:47;;;;;;;9.00;4.78;;;;;;;;;;10260203;28;20076;-65
2023/10/17 04:53:48;;;;;;;6.25;3.20;;;;;;;;;;10263186;28;20061;-65
2023/10/17 04:58:53;;;;;;;3.38;2.30;;;;;;;;;;10267109;28;20076;-66
2023/10/17 05:03:53;;;;;;;7.32;3.80;;;;;;;;;;10257110;28;20076;-65
2023/10/17 05:09:12;;;;;;;23.15;5.93;;;;;;;;;;10253926;28;20080;-66
2023/10/17 06:17:40;;;;;;;18.67;15.43;;;;;;;;;;10266366;28;19964;-62
2023/10/17 06:28:26;;;;;;;23.45;8.80;;;;;;;;;;10234121;28;20537;-65
2023/10/17 06:33:27;;;;;;;26.25;7.40;;;;;;;;;;10264594;28;20092;-62
2023/10/17 06:38:29;;;;;;;22.27;7.88;;;;;;;;;;10259090;28;20077;-61
2023/10/17 06:43:32;;;;;;;13.48;7.28;;;;;;;;;;10251389;28;20147;-61
2023/10/17 06:48:36;;;;;;;16.40;8.18;;;;;;;;;;10264637;28;20068;-63
2023/10/17 06:53:34;;;;;;;23.17;7.33;;;;;;;;;;10265920;28;20065;-62
2023/10/17 06:58:34;;;;;;;20.25;7.28;;;;;;;;;;10257745;28;20073;-62
2023/10/17 07:03:35;;;;;;;18.95;6.82;;;;;;;;;;10262374;28;20072;-63
2023/10/17 07:08:37;;;;;;;13.95;8.02;;;;;;;;;;10249884;28;20060;-62
2023/10/17 07:14:22;;;;;;;23.67;10.07;;;;;;;;;;10270657;28;20538;-63
2023/10/17 07:24:42;;;;;;;17.23;9.20;;;;;;;;;;10242029;28;20069;-63
2023/10/17 07:29:45;;;;;;;18.27;9.38;;;;;;;;;;10265966;28;20103;-62
2023/10/17 07:34:46;;;;;;;5.78;4.07;;;;;;;;;;10271899;28;20485;-60
2023/10/17 07:39:59;;;;;;;3.75;2.40;;;;;;;;;;10262688;28;20536;-63
2023/10/17 07:45:01;;;;;;;2.83;2.30;;;;;;;;;;10268970;28;20073;-63
2023/10/17 07:50:00;;;;;;;5.40;2.20;;;;;;;;;;10268423;28;20080;-62
2023/10/17 07:54:59;;;;;;;4.35;2.85;;;;;;;;;;10270237;28;20111;-61
2023/10/17 07:59:58;;;;;;;4.47;2.88;;;;;;;;;;10254205;28;20069;-63
2023/10/17 08:05:00;;;;;;;9.45;3.53;;;;;;;;;;10268454;28;20087;-66
2023/10/17 08:10:01;;;;;;;8.88;3.00;;;;;;;;;;10257203;28;20111;-64
2023/10/17 08:15:03;;;;;;;9.48;3.20;;;;;;;;;;10258534;28;20079;-64
2023/10/17 08:20:09;;;;;;;8.75;3.20;;;;;;;;;;10271583;28;20075;-65
2023/10/17 08:25:14;;;;;;;5.22;2.85;;;;;;;;;;10272438;28;20103;-65
2023/10/17 08:30:23;;;;;;;3.13;2.70;;;;;;;;;;10274079;28;20060;-65
2023/10/17 08:35:51;;;;;;;4.38;2.92;;;;;;;;;;10266739;28;20095;-64
2023/10/17 08:40:54;;;;;;;5.85;3.17;;;;;;;;;;10269686;28;20083;-64
2023/10/17 08:45:54;;;;;;;12.60;3.92;;;;;;;;;;10267216;28;20079;-64
2023/10/17 08:50:55;;;;;;;9.60;3.03;;;;;;;;;;10264236;28;20088;-65
2023/10/17 08:55:54;;;;;;;12.05;2.47;;;;;;;;;;10272317;28;20067;-66
2023/10/17 09:00:57;;;;;;;8.48;3.15;;;;;;;;;;10271389;28;20068;-65
2023/10/17 09:06:10;;;;;;;11.65;4.32;;;;;;;;;;10274975;28;20067;-64
2023/10/17 09:11:14;;;;;;;5.40;3.70;;;;;;;;;;10274737;28;20080;-64
2023/10/17 09:16:13;;;;;;;8.52;3.10;;;;;;;;;;10269130;28;20858;-65
2023/10/17 09:21:13;;;;;;;8.95;3.03;;;;;;;;;;10274656;28;20056;-64
2023/10/17 09:26:19;;;;;;;7.20;3.50;;;;;;;;;;10275195;28;20052;-65
2023/10/17 09:31:20;;;;;;;7.72;3.17;;;;;;;;;;10276071;28;20064;-66
2023/10/17 09:36:18;;;;;;;7.95;3.22;;;;;;;;;;10275635;28;20068;-65
2023/10/17 09:41:19;;;;;;;6.05;3.50;;;;;;;;;;10275791;28;20075;-65
2023/10/17 09:46:19;;;;;;;8.65;3.85;;;;;;;;;;10274945;28;20068;-64
2023/10/17 09:51:20;;;;;;;12.60;4.07;;;;;;;;;;10275389;28;20064;-65
2023/10/17 09:56:22;;;;;;;6.53;4.25;;;;;;;;;;10275724;28;20526;-64
2023/10/17 10:01:21;;;;;;;2.20;1.50;;;;;;;;;;10274268;28;20506;-65
2023/10/17 10:06:21;;;;;;;1.95;1.75;;;;;;;;;;10274009;28;20076;-66
2023/10/17 10:11:21;;;;;;;3.63;1.58;;;;;;;;;;10267302;28;20069;-66
2023/10/17 10:16:19;;;;;;;3.60;1.38;;;;;;;;;;10267097;28;20073;-66
2023/10/17 10:21:18;;;;;;;1.27;1.10;;;;;;;;;;10273052;28;20064;-65
2023/10/17 10:26:19;;;;;;;3.70;1.73;;;;;;;;;;10274151;28;20076;-65
2023/10/17 10:31:40;;;;;;;6.65;2.63;;;;;;;;;;10263974;28;20075;-65
2023/10/17 10:36:39;;;;;;;2.38;1.50;;;;;;;;;;10261072;28;20148;-64
2023/10/17 10:41:37;;;;;;;2.10;1.45;;;;;;;;;;10266016;28;20077;-66
2023/10/17 10:46:36;;;;;;;2.08;1.15;;;;;;;;;;10270349;28;20076;-67
2023/10/17 10:51:35;;;;;;;2.95;1.80;;;;;;;;;;10260417;28;20069;-67
2023/10/17 10:56:33;;;;;;;5.63;1.48;;;;;;;;;;10258742;28;20065;-66
2023/10/17 11:01:31;;;;;;;5.15;1.80;;;;;;;;;;10248017;28;20088;-67
2023/10/17 11:06:35;;;;;;;2.17;1.40;;;;;;;;;;10248735;28;20092;-65
2023/10/17 11:11:43;;;;;;;2.27;1.50;;;;;;;;;;10260561;28;20107;-67
2023/10/17 11:16:41;;;;;;;3.90;1.50;;;;;;;;;;10256740;28;20129;-66
2023/10/17 11:21:41;;;;;;;7.43;3.83;;;;;;;;;;10259207;28;20076;-65
2023/10/17 11:26:40;;;;;;;4.88;2.42;;;;;;;;;;10258820;28;20077;-65
2023/10/17 11:31:41;;;;;;;9.25;3.65;;;;;;;;;;10280411;28;20080;-67
2023/10/17 11:36:47;;;;;;;3.22;2.30;;;;;;;;;;10254744;28;20090;-66
2023/10/17 11:41:48;;;;;;;7.15;2.60;;;;;;;;;;10262873;28;20072;-66
2023/10/17 11:46:55;;;;;;;5.03;1.92;;;;;;;;;;10273777;28;20067;-68
2023/10/17 11:52:00;;;;;;;5.03;2.30;;;;;;;;;;10275890;28;20064;-67
2023/10/17 11:57:09;;;;;;;7.47;2.00;;;;;;;;;;10275657;28;20518;-65
2023/10/17 12:02:11;;;;;;;5.43;2.33;;;;;;;;;;10277662;28;20091;-65
2023/10/17 12:07:11;;;;;;;3.63;2.05;;;;;;;;;;10274408;28;20092;-66
2023/10/17 12:12:09;;;;;;;7.88;2.38;;;;;;;;;;10265412;28;20079;-67
2023/10/17 12:17:10;;;;;;;6.90;2.00;;;;;;;;;;10251085;28;20092;-65
2023/10/17 12:22:09;;;;;;;11.88;2.58;;;;;;;;;;10246912;28;20136;-66
2023/10/17 12:27:12;;;;;;;3.13;1.95;;;;;;;;;;10264710;28;20084;-66
2023/10/17 12:32:11;;;;;;;7.32;1.83;;;;;;;;;;10256003;28;20049;-65
2023/10/17 12:37:12;;;;;;;3.60;1.70;;;;;;;;;;10273243;28;20072;-66
2023/10/17 12:42:12;;;;;;;2.55;1.35;;;;;;;;;;10260286;28;20077;-66
2023/10/17 12:47:11;;;;;;;1.83;1.70;;;;;;;;;;10273936;28;20537;-66
2023/10/17 12:52:10;;;;;;;4.80;1.50;;;;;;;;;;10275654;28;20076;-66
2023/10/17 12:57:08;;;;;;;6.57;2.10;;;;;;;;;;10257894;28;20096;-66
2023/10/17 13:02:10;;;;;;;1.75;1.65;;;;;;;;;;10249664;28;20510;-65
2023/10/17 13:07:09;;;;;;;3.67;3.05;;;;;;;;;;10254801;28;20075;-66
2023/10/17 13:12:09;;;;;;;4.68;1.52;;;;;;;;;;10254553;28;20068;-65
2023/10/17 13:17:11;;;;;;;4.22;3.05;;;;;;;;;;10268367;28;20518;-63
2023/10/17 13:22:14;;;;;;;11.63;2.40;;;;;;;;;;10249232;28;20081;-64
2023/10/17 13:27:13;;;;;;;4.80;2.42;;;;;;;;;;10267132;28;20080;-63
2023/10/17 13:32:19;;;;;;;5.00;2.22;;;;;;;;;;10271005;28;20072;-65
2023/10/17 13:37:17;;;;;;;5.68;2.08;;;;;;;;;;10265082;28;20065;-65
2023/10/17 13:42:15;;;;;;;9.70;2.55;;;;;;;;;;10267870;28;20080;-65
2023/10/17 13:47:16;;;;;;;4.97;3.08;;;;;;;;;;10249973;28;20084;-66
2023/10/17 13:52:17;;;;;;;4.20;2.17;;;;;;;;;;10271308;28;20075;-66
2023/10/17 13:57:16;;;;;;;6.88;3.00;;;;;;;;;;10264470;28;20107;-65
2023/10/17 14:02:17;;;;;;;3.53;2.70;;;;;;;;;;10259844;28;20081;-65
2023/10/17 14:07:18;;;;;;;7.45;3.47;;;;;;;;;;10256278;28;20076;-65
2023/10/17 14:12:17;;;;;;;8.32;3.33;;;;;;;;;;10254983;28;20081;-65
2023/10/17 14:17:15;;;;;;;9.07;3.63;;;;;;;;;;10261505;28;20084;-65
2023/10/17 14:22:38;;;;;;;6.70;4.32;;;;;;;;;;10258809;28;20073;-65
2023/10/17 14:27:38;;;;;;;9.90;4.53;;;;;;;;;;10253338;28;20076;-65
2023/10/17 14:32:36;;;;;;;8.63;2.97;;;;;;;;;;10265858;28;20072;-64
2023/10/17 14:37:35;;;;;;;9.18;4.97;;;;;;;;;;10260557;28;20075;-66
2023/10/17 14:42:33;;;;;;;6.30;3.53;;;;;;;;;;10260311;28;20068;-66
2023/10/17 14:47:33;;;;;;;8.10;2.92;;;;;;;;;;10259996;28;20082;-65
2023/10/17 14:52:31;;;;;;;6.97;3.10;;;;;;;;;;10263759;28;20641;-65
2023/10/17 14:57:30;;;;;;;4.80;3.28;;;;;;;;;;10264756;28;20548;-65
2023/10/17 15:02:28;;;;;;;6.30;2.30;;;;;;;;;;10265704;28;20079;-65
2023/10/17 15:07:29;;;;;;;12.75;3.80;;;;;;;;;;10266944;28;20069;-65
2023/10/17 15:12:27;;;;;;;7.20;3.67;;;;;;;;;;10266842;28;20072;-65
2023/10/17 15:17:25;;;;;;;12.25;3.95;;;;;;;;;;10268796;28;20076;-65
2023/10/17 15:22:24;;;;;;;9.50;3.30;;;;;;;;;;10269532;28;20068;-64
2023/10/17 15:27:23;;;;;;;34.78;19.20;;;;;;;;;;10269815;28;20079;-65
2023/10/17 15:32:23;;;;;;;22.35;10.43;;;;;;;;;;10272047;28;20068;-64
2023/10/17 15:37:22;;;;;;;16.92;6.45;;;;;;;;;;10258524;28;20061;-66
2023/10/17 15:42:20;;;;;;;8.73;3.72;;;;;;;;;;10260874;28;20106;-64
2023/10/17 15:47:20;;;;;;;8.93;5.28;;;;;;;;;;10261994;28;20071;-64
2023/10/17 15:52:18;;;;;;;16.83;11.15;;;;;;;;;;10262219;28;20080;-64
2023/10/17 15:57:17;;;;;;;11.68;5.32;;;;;;;;;;10268256;28;20492;-64
2023/10/17 16:02:15;;;;;;;9.25;5.30;;;;;;;;;;10271740;28;20077;-64
2023/10/17 16:07:14;;;;;;;10.13;5.47;;;;;;;;;;10264968;28;20068;-65
2023/10/17 16:12:14;;;;;;;13.05;6.97;;;;;;;;;;10263693;28;20498;-64
2023/10/17 16:17:13;;;;;;;13.70;7.47;;;;;;;;;;10272591;28;20072;-64
2023/10/17 16:22:12;;;;;;;7.63;5.22;;;;;;;;;;10277384;28;20505;-64
2023/10/17 16:27:11;;;;;;;10.80;5.93;;;;;;;;;;10265910;28;20069;-65
2023/10/17 16:32:11;;;;;;;15.05;6.20;;;;;;;;;;10288328;28;20083;-65
2023/10/17 16:37:09;;;;;;;8.65;5.88;;;;;;;;;;10278284;28;20071;-64
2023/10/17 16:42:07;;;;;;;10.68;6.03;;;;;;;;;;10276607;28;20084;-65
2023/10/17 16:47:07;;;;;;;9.43;5.22;;;;;;;;;;10273631;28;20079;-66
2023/10/17 16:52:05;;;;;;;24.48;13.30;;;;;;;;;;10271546;28;20076;-65
2023/10/17 16:57:05;;;;;;;10.82;6.05;;;;;;;;;;10286885;28;20069;-66
2023/10/17 17:02:03;;;;;;;6.88;4.72;;;;;;;;;;10273680;28;20076;-66
2023/10/17 17:07:03;;;;;;;5.90;4.40;;;;;;;;;;10280452;28;20510;-66
2023/10/17 17:12:01;;;;;;;7.57;3.83;;;;;;;;;;10284383;28;20065;-65
2023/10/17 17:16:59;;;;;;;10.70;4.40;;;;;;;;;;10289228;28;20482;-65
2023/10/17 17:21:58;;;;;;;7.93;4.65;;;;;;;;;;10287768;28;20076;-65
2023/10/17 17:26:57;;;;;;;11.57;3.83;;;;;;;;;;10285739;28;21589;-64
2023/10/17 17:31:57;;;;;;;10.63;3.00;;;;;;;;;;10267334;28;20064;-65
2023/10/17 17:36:56;;;;;;;4.00;2.88;;;;;;;;;;10275125;28;20068;-66
2023/10/17 17:41:54;;;;;;;6.45;3.45;;;;;;;;;;10284530;28;20076;-65
2023/10/17 17:46:54;;;;;;;7.57;3.30;;;;;;;;;;10290675;28;20078;-66
2023/10/17 17:51:52;;;;;;;5.32;3.17;;;;;;;;;;10290891;28;20065;-66
2023/10/17 17:56:50;;;;;;;7.78;3.50;;;;;;;;;;10286333;28;20060;-65
2023/10/17 18:01:48;;;;;;;9.98;6.45;;;;;;;;;;10285538;28;20080;-65
2023/10/17 18:06:48;;;;;;;5.38;4.07;;;;;;;;;;10287474;28;20451;-66
2023/10/17 18:11:46;;;;;;;12.38;9.23;;;;;;;;;;10287525;28;20052;-65
2023/10/17 18:16:45;;;;;;;3.75;2.45;;;;;;;;;;10288768;28;20084;-65
2023/10/17 18:21:44;;;;;;;6.40;2.65;;;;;;;;;;10275507;28;20592;-66
2023/10/17 18:26:44;;;;;;;4.90;3.03;;;;;;;;;;10290543;28;20069;-66
2023/10/17 18:31:42;;;;;;;5.45;3.08;;;;;;;;;;10274675;28;20071;-65
2023/10/17 18:36:41;;;;;;;3.75;2.85;;;;;;;;;;10274618;28;20498;-65
2023/10/17 18:41:40;;;;;;;7.53;4.32;;;;;;;;;;10279504;28;20064;-65
2023/10/17 18:46:42;;;;;;;11.10;4.68;;;;;;;;;;10284772;28;20612;-66
2023/10/17 18:51:40;;;;;;;5.85;3.83;;;;;;;;;;10287372;28;20573;-64
2023/10/17 18:56:38;;;;;;;5.43;3.55;;;;;;;;;;10285189;28;20548;-65
2023/10/17 19:01:37;;;;;;;5.60;3.00;;;;;;;;;;10287204;28;20509;-65
2023/10/17 19:06:37;;;;;;;5.25;2.85;;;;;;;;;;10288462;28;20061;-65
2023/10/17 19:11:36;;;;;;;5.80;3.53;;;;;;;;;;10285058;28;20077;-66
2023/10/17 19:16:34;;;;;;;4.28;2.80;;;;;;;;;;10286497;28;20088;-65
2023/10/17 19:21:36;;;;;;;4.97;3.03;;;;;;;;;;10281108;28;20091;-66
2023/10/17 19:26:35;;;;;;;7.25;2.97;;;;;;;;;;10288955;28;20071;-65
2023/10/17 19:31:33;;;;;;;7.32;3.08;;;;;;;;;;10280892;28;20065;-66
2023/10/17 19:36:31;;;;;;;6.90;3.38;;;;;;;;;;10262042;28;20128;-65
2023/10/17 19:41:32;;;;;;;6.30;3.53;;;;;;;;;;10276441;28;20083;-66
2023/10/17 19:46:31;;;;;;;7.50;4.70;;;;;;;;;;10277815;28;20529;-64
2023/10/17 19:51:30;;;;;;;4.50;3.50;;;;;;;;;;10287026;28;20956;-64
2023/10/17 19:56:29;;;;;;;6.63;3.58;;;;;;;;;;10268870;28;20084;-65
2023/10/17 20:01:29;;;;;;;3.92;3.00;;;;;;;;;;10262908;28;20522;-65
2023/10/17 20:06:28;;;;;;;4.63;3.53;;;;;;;;;;10279869;28;20098;-65
2023/10/17 20:11:26;;;;;;;3.22;2.47;;;;;;;;;;10281140;28;20075;-65
2023/10/17 20:16:25;;;;;;;3.85;2.65;;;;;;;;;;10290553;28;20077;-65
2023/10/17 20:21:25;;;;;;;3.28;2.58;;;;;;;;;;10289337;28;20106;-65
2023/10/17 20:26:24;;;;;;;3.38;2.50;;;;;;;;;;10288936;28;20072;-66
2023/10/17 20:31:22;;;;;;;4.25;3.05;;;;;;;;;;10290196;28;20061;-66
2023/10/17 20:36:26;;;;;;;4.43;1.95;;;;;;;;;;10293629;28;20056;-65
2023/10/17 20:41:26;;;;;;;5.22;2.92;;;;;;;;;;10289332;28;20542;-65
2023/10/17 20:46:25;;;;;;;7.35;3.38;;;;;;;;;;10285417;28;20540;-66
2023/10/17 20:51:31;;;;;;;5.10;3.08;;;;;;;;;;10290708;28;20080;-66
2023/10/17 20:56:30;;;;;;;5.32;2.60;;;;;;;;;;10288552;28;20160;-63
2023/10/17 21:01:39;;;;;;;9.35;4.70;;;;;;;;;;10283749;28;20083;-64
2023/10/17 21:06:39;;;;;;;5.43;3.10;;;;;;;;;;10267729;28;20061;-64
2023/10/17 21:11:38;;;;;;;5.97;3.03;;;;;;;;;;10283950;28;20520;-64
2023/10/17 21:16:36;;;;;;;5.53;2.75;;;;;;;;;;10281292;28;20083;-64
2023/10/17 21:21:37;;;;;;;6.05;3.00;;;;;;;;;;10285741;28;20082;-64
2023/10/17 21:26:38;;;;;;;3.70;2.70;;;;;;;;;;10276766;28;20479;-64
2023/10/17 21:31:37;;;;;;;3.72;2.00;;;;;;;;;;10274404;28;20544;-64
2023/10/17 21:36:36;;;;;;;7.10;3.35;;;;;;;;;;10273955;28;20083;-65
2023/10/17 21:41:34;;;;;;;6.13;2.45;;;;;;;;;;10287119;28;20076;-65
2023/10/17 21:46:34;;;;;;;4.10;2.40;;;;;;;;;;10290959;28;20536;-65
2023/10/17 21:51:32;;;;;;;2.60;1.45;;;;;;;;;;10285454;28;20079;-64
2023/10/17 21:56:31;;;;;;;3.45;1.45;;;;;;;;;;10283589;28;20083;-64
2023/10/17 22:01:30;;;;;;;2.25;1.52;;;;;;;;;;10285186;28;20095;-65
2023/10/17 22:06:31;;;;;;;3.63;1.50;;;;;;;;;;10285442;28;20080;-65
2023/10/17 22:11:30;;;;;;;2.30;1.55;;;;;;;;;;10288058;28;20076;-65
2023/10/17 22:16:29;;;;;;;1.73;1.50;;;;;;;;;;10289082;28;20111;-64
2023/10/17 22:21:27;;;;;;;3.45;1.83;;;;;;;;;;10288060;28;20075;-65
2023/10/17 22:26:27;;;;;;;4.00;1.65;;;;;;;;;;10284297;28;20084;-65
2023/10/17 22:31:25;;;;;;;2.13;1.50;;;;;;;;;;10280232;28;20087;-65
2023/10/17 22:36:24;;;;;;;1.65;1.52;;;;;;;;;;10287930;28;20091;-65
2023/10/17 22:41:22;;;;;;;1.30;1.20;;;;;;;;;;10288292;28;20076;-65
2023/10/17 22:46:22;;;;;;;5.03;2.70;;;;;;;;;;10284558;28;20080;-65
2023/10/17 22:51:20;;;;;;;6.68;3.10;;;;;;;;;;10284331;28;20087;-65
2023/10/17 22:56:19;;;;;;;5.65;3.50;;;;;;;;;;10286477;28;20069;-65
2023/10/17 23:01:17;;;;;;;5.82;3.40;;;;;;;;;;10286416;28;20064;-64
2023/10/17 23:06:18;;;;;;;5.85;4.03;;;;;;;;;;10288989;28;20068;-64
2023/10/17 23:11:16;;;;;;;7.70;3.28;;;;;;;;;;10294075;28;20072;-64
2023/10/17 23:16:16;;;;;;;8.77;3.67;;;;;;;;;;10295087;28;20079;-65
2023/10/17 23:21:14;;;;;;;5.43;3.40;;;;;;;;;;10292109;28;20075;-65
2023/10/17 23:26:14;;;;;;;8.02;3.80;;;;;;;;;;10293008;28;20072;-65
2023/10/17 23:31:13;;;;;;;8.18;4.50;;;;;;;;;;10296149;28;20081;-65
2023/10/17 23:36:12;;;;;;;6.03;4.03;;;;;;;;;;10291985;28;20079;-65
2023/10/17 23:41:10;;;;;;;7.18;2.90;;;;;;;;;;10290282;28;20064;-65
2023/10/17 23:46:12;;;;;;;4.75;3.10;;;;;;;;;;10290656;28;20064;-65
2023/10/17 23:51:11;;;;;;;3.67;2.92;;;;;;;;;;10288310;28;20080;-65
2023/10/17 23:56:10;;;;;;;5.57;3.33;;;;;;;;;;10289995;28;20072;-65
